createdAt,value
2018-04-20T00:00:32.673Z,17.20
2018-04-20T00:03:00.475Z,17.20
2018-04-20T00:05:27.919Z,17.10
2018-04-20T00:07:57.700Z,17.10
2018-04-20T00:10:26.976Z,16.90
2018-04-20T00:12:54.409Z,16.80
2018-04-20T00:15:21.922Z,16.80
2018-04-20T00:17:49.417Z,16.70
2018-04-20T00:20:16.874Z,16.60
2018-04-20T00:22:44.678Z,16.50
2018-04-20T00:25:12.173Z,16.40
2018-04-20T00:27:39.620Z,16.40
2018-04-20T00:30:07.072Z,16.40
2018-04-20T00:32:34.533Z,16.30
2018-04-20T00:35:01.975Z,16.20
2018-04-20T00:37:29.419Z,16.20
2018-04-20T00:39:56.864Z,16.10
2018-04-20T00:42:24.316Z,16.00
2018-04-20T00:44:52.559Z,16.00
2018-04-20T00:47:20.147Z,15.90
2018-04-20T00:49:47.605Z,16.00
2018-04-20T00:52:15.055Z,16.00
2018-04-20T00:54:42.503Z,16.00
2018-04-20T00:57:10.200Z,15.90
2018-04-20T00:59:37.637Z,15.90
2018-04-20T01:06:39.636Z,15.80
2018-04-20T01:09:07.080Z,15.80
2018-04-20T01:11:34.544Z,15.70
2018-04-20T01:14:02.022Z,15.60
2018-04-20T01:16:29.469Z,15.60
2018-04-20T01:18:56.919Z,15.50
2018-04-20T01:21:24.595Z,15.50
2018-04-20T01:23:52.032Z,15.50
2018-04-20T01:26:19.513Z,15.50
2018-04-20T01:28:46.939Z,15.40
2018-04-20T01:31:14.490Z,15.40
2018-04-20T01:33:41.954Z,15.40
2018-04-20T01:36:10.285Z,15.30
2018-04-20T01:38:37.741Z,15.30
2018-04-20T01:41:05.436Z,15.30
2018-04-20T01:43:32.890Z,15.30
2018-04-20T01:46:00.769Z,15.30
2018-04-20T01:48:28.204Z,15.20
2018-04-20T01:50:55.662Z,15.20
2018-04-20T01:53:23.100Z,15.20
2018-04-20T01:55:50.539Z,15.10
2018-04-20T01:58:18.759Z,15.00
2018-04-20T02:00:46.255Z,14.90
2018-04-20T02:03:13.954Z,15.00
2018-04-20T02:05:41.400Z,15.00
2018-04-20T02:08:08.844Z,15.00
2018-04-20T02:10:36.300Z,14.90
2018-04-20T02:13:03.766Z,14.90
2018-04-20T02:15:31.220Z,14.90
2018-04-20T02:17:58.669Z,14.90
2018-04-20T02:20:26.107Z,14.80
2018-04-20T02:22:53.567Z,14.80
2018-04-20T02:25:21.004Z,14.80
2018-04-20T02:27:48.452Z,14.80
2018-04-20T02:30:15.909Z,14.70
2018-04-20T02:32:43.360Z,14.80
2018-04-20T02:35:11.011Z,14.70
2018-04-20T02:37:38.458Z,14.70
2018-04-20T02:40:05.916Z,14.70
2018-04-20T02:42:33.356Z,14.70
2018-04-20T02:45:00.803Z,14.70
2018-04-20T02:47:28.257Z,14.70
2018-04-20T02:49:55.696Z,14.60
2018-04-20T02:52:23.182Z,14.50
2018-04-20T02:54:50.612Z,14.50
2018-04-20T02:57:18.060Z,14.40
2018-04-20T02:59:45.720Z,14.40
2018-04-20T03:02:13.199Z,14.30
2018-04-20T03:04:40.663Z,14.30
2018-04-20T03:07:08.349Z,14.30
2018-04-20T03:09:35.784Z,14.30
2018-04-20T03:12:03.246Z,14.20
2018-04-20T03:14:30.914Z,14.20
2018-04-20T03:16:58.407Z,14.20
2018-04-20T03:19:26.122Z,14.20
2018-04-20T03:21:53.794Z,14.20
2018-04-20T03:24:21.242Z,14.10
2018-04-20T03:26:50.196Z,14.00
2018-04-20T03:29:17.659Z,14.00
2018-04-20T03:31:45.122Z,13.90
2018-04-20T03:34:12.581Z,13.90
2018-04-20T03:36:40.040Z,13.90
2018-04-20T03:39:07.691Z,13.90
2018-04-20T03:41:35.166Z,13.90
2018-04-20T03:44:03.016Z,13.90
2018-04-20T03:46:30.473Z,13.90
2018-04-20T03:48:57.948Z,13.90
2018-04-20T03:51:25.970Z,13.90
2018-04-20T03:53:53.428Z,13.90
2018-04-20T03:56:21.693Z,13.80
2018-04-20T03:58:49.100Z,13.70
2018-04-20T04:01:16.579Z,13.70
2018-04-20T04:03:44.025Z,13.70
2018-04-20T04:06:11.488Z,13.60
2018-04-20T04:08:38.939Z,13.60
2018-04-20T04:11:06.380Z,13.50
2018-04-20T04:13:33.843Z,13.40
2018-04-20T04:16:01.280Z,13.40
2018-04-20T04:18:40.603Z,13.40
2018-04-20T04:21:32.781Z,13.30
2018-04-20T04:24:24.770Z,13.30
2018-04-20T04:27:03.957Z,13.30
2018-04-20T04:29:31.409Z,13.30
2018-04-20T04:31:58.870Z,13.20
2018-04-20T04:34:27.109Z,13.20
2018-04-20T04:36:54.561Z,13.10
2018-04-20T04:39:22.018Z,13.10
2018-04-20T04:41:49.487Z,13.10
2018-04-20T04:44:16.923Z,13.10
2018-04-20T04:46:44.388Z,13.00
2018-04-20T04:49:13.232Z,13.00
2018-04-20T04:51:40.696Z,13.00
2018-04-20T04:54:08.157Z,13.00
2018-04-20T04:56:37.099Z,12.80
2018-04-20T04:59:04.558Z,12.80
2018-04-20T05:01:32.033Z,12.90
2018-04-20T05:03:59.464Z,12.80
2018-04-20T05:06:27.207Z,12.80
2018-04-20T05:08:54.661Z,12.80
2018-04-20T05:11:22.160Z,12.80
2018-04-20T05:13:49.592Z,12.70
2018-04-20T05:16:17.028Z,12.80
2018-04-20T05:18:45.003Z,12.80
2018-04-20T05:21:12.584Z,12.80
2018-04-20T05:23:40.064Z,12.80
2018-04-20T05:26:07.508Z,12.80
2018-04-20T05:28:34.954Z,12.90
2018-04-20T05:31:02.403Z,12.90
2018-04-20T05:33:29.875Z,13.00
2018-04-20T05:35:57.319Z,13.00
2018-04-20T05:38:24.764Z,13.10
2018-04-20T05:40:52.200Z,13.20
2018-04-20T05:43:23.103Z,13.20
2018-04-20T05:45:50.537Z,13.30
2018-04-20T05:48:17.998Z,13.40
2018-04-20T05:50:45.436Z,13.50
2018-04-20T05:53:12.885Z,13.60
2018-04-20T05:55:40.336Z,13.70
2018-04-20T05:58:07.807Z,13.80
2018-04-20T06:00:35.256Z,13.80
2018-04-20T06:03:02.717Z,13.90
2018-04-20T06:05:30.160Z,14.00
2018-04-20T06:07:57.836Z,14.00
2018-04-20T06:10:26.045Z,14.20
2018-04-20T06:12:53.784Z,14.10
2018-04-20T06:15:21.229Z,14.30
2018-04-20T06:17:48.689Z,14.30
2018-04-20T06:20:16.131Z,14.50
2018-04-20T06:22:43.587Z,14.60
2018-04-20T06:25:11.053Z,14.70
2018-04-20T06:27:38.489Z,14.80
2018-04-20T06:30:05.929Z,14.90
2018-04-20T06:32:33.379Z,15.00
2018-04-20T06:35:00.815Z,15.10
2018-04-20T06:37:28.267Z,15.20
2018-04-20T06:39:55.835Z,15.20
2018-04-20T06:42:23.288Z,15.40
2018-04-20T06:44:50.744Z,15.40
2018-04-20T06:47:18.201Z,15.50
2018-04-20T06:49:45.649Z,15.60
2018-04-20T06:52:13.133Z,15.60
2018-04-20T06:54:40.630Z,15.70
2018-04-20T06:57:08.099Z,15.80
2018-04-20T06:59:35.549Z,15.90
2018-04-20T07:02:03.011Z,16.00
2018-04-20T07:04:30.454Z,16.00
2018-04-20T07:06:57.895Z,16.20
2018-04-20T07:09:25.357Z,16.30
2018-04-20T07:11:52.825Z,16.50
2018-04-20T07:14:20.279Z,16.70
2018-04-20T07:16:47.700Z,16.90
2018-04-20T07:19:15.254Z,17.10
2018-04-20T07:21:42.816Z,17.40
2018-04-20T07:24:10.256Z,17.60
2018-04-20T07:26:37.830Z,17.90
2018-04-20T07:29:05.277Z,18.10
2018-04-20T07:31:33.501Z,18.60
2018-04-20T07:34:00.988Z,18.50
2018-04-20T07:36:28.419Z,18.70
2018-04-20T07:38:56.654Z,19.10
2018-04-20T07:41:24.628Z,19.00
2018-04-20T07:43:52.033Z,19.30
2018-04-20T07:46:20.248Z,19.70
2018-04-20T07:48:47.931Z,19.70
2018-04-20T07:51:15.657Z,19.90
2018-04-20T07:53:43.093Z,20.10
2018-04-20T07:56:10.885Z,20.30
2018-04-20T07:58:38.330Z,20.40
2018-04-20T08:01:05.840Z,20.60
2018-04-20T08:03:33.332Z,20.80
2018-04-20T08:06:00.767Z,21.00
2018-04-20T08:08:28.200Z,21.10
2018-04-20T08:10:55.656Z,21.20
2018-04-20T08:13:23.093Z,21.40
2018-04-20T08:15:51.321Z,21.80
2018-04-20T08:18:18.770Z,21.70
2018-04-20T08:20:46.456Z,21.90
2018-04-20T08:23:13.950Z,22.10
2018-04-20T08:25:41.388Z,22.20
2018-04-20T08:28:08.944Z,22.40
2018-04-20T08:30:36.400Z,22.50
2018-04-20T08:33:03.845Z,22.70
2018-04-20T08:35:31.288Z,23.00
2018-04-20T08:37:58.741Z,23.30
2018-04-20T08:40:26.962Z,24.30
2018-04-20T08:42:54.389Z,24.30
2018-04-20T08:45:21.819Z,25.00
2018-04-20T08:47:49.270Z,25.70
2018-04-20T08:50:16.714Z,26.50
2018-04-20T08:52:44.162Z,27.40
2018-04-20T08:55:11.604Z,28.50
2018-04-20T08:57:39.113Z,29.50
2018-04-20T09:00:06.572Z,30.40
2018-04-20T09:02:36.467Z,31.20
2018-04-20T09:05:04.145Z,31.70
2018-04-20T09:07:31.623Z,32.30
2018-04-20T09:09:59.076Z,32.30
2018-04-20T09:12:26.531Z,32.20
2018-04-20T09:17:27.463Z,32.90
2018-04-20T09:19:55.011Z,33.40
2018-04-20T09:22:22.596Z,33.90
2018-04-20T09:24:50.358Z,34.10
2018-04-20T09:27:17.805Z,34.20
2018-04-20T09:29:45.251Z,34.50
2018-04-20T09:32:12.804Z,34.90
2018-04-20T09:34:40.523Z,35.20
2018-04-20T09:37:07.975Z,35.40
2018-04-20T09:39:35.412Z,35.50
2018-04-20T09:42:03.657Z,35.80
2018-04-20T09:44:31.101Z,35.70
2018-04-20T09:46:58.552Z,35.90
2018-04-20T09:49:26.013Z,36.00
2018-04-20T09:51:53.812Z,36.20
2018-04-20T09:54:21.376Z,36.30
2018-04-20T09:56:48.835Z,36.30
2018-04-20T09:59:16.276Z,36.50
2018-04-20T10:01:45.629Z,36.80
2018-04-20T10:04:16.283Z,37.00
2018-04-20T10:06:43.724Z,37.00
2018-04-20T10:09:11.178Z,37.10
2018-04-20T10:11:38.624Z,37.10
2018-04-20T10:14:06.056Z,37.10
2018-04-20T10:16:33.495Z,37.10
2018-04-20T10:19:00.985Z,37.10
2018-04-20T10:21:28.564Z,37.50
2018-04-20T10:23:56.219Z,37.60
2018-04-20T10:26:23.655Z,37.80
2018-04-20T10:28:51.559Z,38.20
2018-04-20T10:31:19.032Z,38.20
2018-04-20T10:33:46.707Z,38.30
2018-04-20T10:36:14.164Z,38.50
2018-04-20T10:38:41.693Z,38.20
2018-04-20T10:41:09.187Z,37.90
2018-04-20T10:43:37.683Z,38.00
2018-04-20T10:46:05.232Z,38.00
2018-04-20T10:48:32.698Z,38.00
2018-04-20T10:51:00.228Z,37.90
2018-04-20T10:53:28.011Z,37.60
2018-04-20T10:55:55.876Z,37.50
2018-04-20T10:58:23.320Z,37.60
2018-04-20T11:00:50.755Z,37.60
2018-04-20T11:03:18.353Z,37.80
2018-04-20T11:05:45.780Z,38.10
2018-04-20T11:08:13.296Z,38.60
2018-04-20T11:10:40.735Z,39.30
2018-04-20T11:13:08.405Z,39.40
2018-04-20T11:15:35.840Z,39.70
2018-04-20T11:18:03.272Z,40.00
2018-04-20T11:20:30.721Z,40.30
2018-04-20T11:22:58.160Z,40.40
2018-04-20T11:25:25.637Z,40.40
2018-04-20T11:27:53.184Z,40.50
2018-04-20T11:30:20.615Z,40.90
2018-04-20T11:32:48.057Z,41.00
2018-04-20T11:35:15.527Z,40.90
2018-04-20T11:37:42.969Z,40.90
2018-04-20T11:40:10.399Z,41.30
2018-04-20T11:42:37.864Z,41.80
2018-04-20T11:45:05.304Z,41.50
2018-04-20T11:47:32.745Z,41.60
2018-04-20T11:50:00.205Z,41.70
2018-04-20T11:52:27.723Z,41.80
2018-04-20T11:54:55.160Z,41.90
2018-04-20T11:57:22.864Z,42.20
2018-04-20T11:59:50.304Z,42.70
2018-04-20T12:02:17.781Z,42.90
2018-04-20T12:04:45.199Z,43.10
2018-04-20T12:07:12.636Z,42.60
2018-04-20T12:09:40.071Z,42.30
2018-04-20T12:12:07.515Z,42.10
2018-04-20T12:14:34.964Z,42.00
2018-04-20T12:17:02.405Z,42.00
2018-04-20T12:19:29.866Z,42.40
2018-04-20T12:21:57.318Z,42.80
2018-04-20T12:24:24.811Z,43.00
2018-04-20T12:26:52.267Z,43.40
2018-04-20T12:29:19.718Z,43.70
2018-04-20T12:31:47.159Z,44.10
2018-04-20T12:34:14.816Z,44.40
2018-04-20T12:36:42.255Z,44.50
2018-04-20T12:39:09.715Z,44.30
2018-04-20T12:41:37.175Z,43.40
2018-04-20T12:44:04.622Z,43.30
2018-04-20T12:46:32.063Z,43.60
2018-04-20T12:48:59.521Z,43.80
2018-04-20T12:51:26.978Z,43.60
2018-04-20T12:53:54.416Z,43.40
2018-04-20T12:56:22.125Z,43.60
2018-04-20T12:58:49.617Z,43.40
2018-04-20T13:01:17.064Z,43.50
2018-04-20T13:03:44.540Z,43.70
2018-04-20T13:06:11.978Z,43.60
2018-04-20T13:08:39.410Z,43.00
2018-04-20T13:11:07.115Z,42.90
2018-04-20T13:13:34.556Z,42.70
2018-04-20T13:16:02.017Z,42.60
2018-04-20T13:18:29.459Z,42.60
2018-04-20T13:20:56.897Z,42.90
2018-04-20T13:23:24.491Z,43.30
2018-04-20T13:25:51.928Z,43.60
2018-04-20T13:28:19.388Z,43.80
2018-04-20T13:30:46.830Z,43.60
2018-04-20T13:33:14.545Z,43.20
2018-04-20T13:35:41.983Z,43.20
2018-04-20T13:38:09.413Z,43.00
2018-04-20T13:40:36.868Z,42.70
2018-04-20T13:43:04.312Z,42.20
2018-04-20T13:45:31.878Z,41.60
2018-04-20T13:47:59.330Z,41.20
2018-04-20T13:50:26.807Z,41.20
2018-04-20T13:52:54.264Z,41.40
2018-04-20T13:55:21.709Z,41.60
2018-04-20T13:57:49.152Z,41.80
2018-04-20T14:00:16.652Z,41.50
2018-04-20T14:02:44.296Z,41.40
2018-04-20T14:05:11.747Z,40.80
2018-04-20T14:07:39.318Z,40.60
2018-04-20T14:10:06.768Z,40.40
2018-04-20T14:12:34.227Z,40.80
2018-04-20T14:15:01.722Z,41.20
2018-04-20T14:17:29.175Z,40.90
2018-04-20T14:19:56.633Z,40.50
2018-04-20T14:22:24.075Z,40.40
2018-04-20T14:24:51.528Z,40.50
2018-04-20T14:27:18.965Z,40.70
2018-04-20T14:29:46.488Z,41.00
2018-04-20T14:32:13.958Z,41.30
2018-04-20T14:34:41.528Z,41.50
2018-04-20T14:37:08.988Z,41.50
2018-04-20T14:39:36.654Z,41.50
2018-04-20T14:42:04.105Z,41.20
2018-04-20T14:44:31.537Z,41.00
2018-04-20T14:46:58.970Z,41.10
2018-04-20T14:49:27.189Z,41.00
2018-04-20T14:51:54.645Z,40.90
2018-04-20T14:54:22.219Z,40.70
2018-04-20T14:56:49.680Z,40.60
2018-04-20T14:59:17.111Z,40.80
2018-04-20T15:01:44.574Z,40.50
2018-04-20T15:04:12.648Z,40.00
2018-04-20T15:06:40.088Z,39.60
2018-04-20T15:09:07.541Z,39.10
2018-04-20T15:11:35.759Z,38.50
2018-04-20T15:14:03.210Z,38.40
2018-04-20T15:16:30.711Z,38.20
2018-04-20T15:18:58.221Z,37.90
2018-04-20T15:21:25.637Z,37.50
2018-04-20T15:23:53.118Z,37.20
2018-04-20T15:26:20.576Z,36.60
2018-04-20T15:28:48.023Z,36.30
2018-04-20T15:31:15.499Z,36.30
2018-04-20T15:33:43.175Z,36.30
2018-04-20T15:36:10.795Z,36.10
2018-04-20T15:38:38.232Z,35.80
2018-04-20T15:41:05.740Z,35.60
2018-04-20T15:43:33.287Z,35.50
2018-04-20T15:46:00.728Z,35.50
2018-04-20T15:48:28.163Z,35.50
2018-04-20T15:50:55.868Z,35.40
2018-04-20T15:53:23.299Z,35.10
2018-04-20T15:55:50.729Z,34.70
2018-04-20T15:58:19.707Z,33.90
2018-04-20T16:00:47.154Z,33.90
2018-04-20T16:03:14.581Z,33.60
2018-04-20T16:05:44.137Z,32.80
2018-04-20T16:08:11.581Z,32.70
2018-04-20T16:10:39.032Z,32.40
2018-04-20T16:13:06.459Z,32.00
2018-04-20T16:15:33.903Z,31.70
2018-04-20T16:18:01.352Z,31.40
2018-04-20T16:20:28.807Z,31.20
2018-04-20T16:22:56.368Z,31.10
2018-04-20T16:25:23.804Z,31.00
2018-04-20T16:27:51.242Z,30.90
2018-04-20T16:30:18.699Z,30.70
2018-04-20T16:32:46.135Z,30.60
2018-04-20T16:35:13.760Z,30.50
2018-04-20T16:37:41.440Z,30.30
2018-04-20T16:40:09.310Z,30.30
2018-04-20T16:42:36.872Z,30.20
2018-04-20T16:45:04.443Z,30.10
2018-04-20T16:47:31.904Z,30.00
2018-04-20T16:49:59.347Z,30.00
2018-04-20T16:52:27.161Z,29.90
2018-04-20T16:54:54.632Z,29.90
2018-04-20T16:57:23.581Z,29.70
2018-04-20T16:59:51.044Z,29.70
2018-04-20T17:02:18.503Z,29.70
2018-04-20T17:04:46.291Z,29.70
2018-04-20T17:07:13.784Z,29.60
2018-04-20T17:09:41.221Z,29.60
2018-04-20T17:12:08.671Z,29.50
2018-04-20T17:14:36.126Z,29.40
2018-04-20T17:17:03.557Z,29.30
2018-04-20T17:19:31.171Z,29.20
2018-04-20T17:21:58.645Z,29.10
2018-04-20T17:24:26.103Z,29.00
2018-04-20T17:26:53.633Z,29.00
2018-04-20T17:29:21.066Z,28.90
2018-04-20T17:31:48.895Z,28.80
2018-04-20T17:34:16.341Z,28.70
2018-04-20T17:36:44.196Z,28.60
2018-04-20T17:39:11.735Z,28.50
2018-04-20T17:41:39.957Z,28.30
2018-04-20T17:44:07.416Z,28.30
2018-04-20T17:46:34.844Z,28.20
2018-04-20T17:49:02.333Z,28.10
2018-04-20T17:51:29.887Z,28.00
2018-04-20T17:53:57.312Z,27.80
2018-04-20T17:56:25.535Z,27.40
2018-04-20T17:58:52.967Z,27.30
2018-04-20T18:01:20.440Z,27.20
2018-04-20T18:03:47.872Z,27.00
2018-04-20T18:06:15.508Z,26.80
2018-04-20T18:08:42.947Z,26.60
2018-04-20T18:11:10.397Z,26.40
2018-04-20T18:13:37.965Z,26.20
2018-04-20T18:16:05.409Z,26.10
2018-04-20T18:18:32.843Z,25.90
2018-04-20T18:21:01.059Z,25.60
2018-04-20T18:23:28.484Z,25.60
2018-04-20T18:25:56.032Z,25.50
2018-04-20T18:28:23.556Z,25.30
2018-04-20T18:30:50.981Z,25.20
2018-04-20T18:33:18.441Z,25.00
2018-04-20T18:35:45.876Z,24.90
2018-04-20T18:38:13.439Z,24.80
2018-04-20T18:40:41.292Z,24.70
2018-04-20T18:43:08.744Z,24.60
2018-04-20T18:45:36.203Z,24.60
2018-04-20T18:48:03.644Z,24.40
2018-04-20T18:50:31.308Z,24.30
2018-04-20T18:52:58.754Z,24.30
2018-04-20T18:55:26.212Z,24.20
2018-04-20T18:57:53.672Z,24.00
2018-04-20T19:00:21.118Z,23.90
2018-04-20T19:02:48.665Z,23.70
2018-04-20T19:05:16.111Z,23.60
2018-04-20T19:07:43.571Z,23.50
2018-04-20T19:10:11.015Z,23.40
2018-04-20T19:12:38.460Z,23.30
2018-04-20T19:15:05.905Z,23.20
2018-04-20T19:17:34.120Z,22.90
2018-04-20T19:20:01.579Z,22.90
2018-04-20T19:22:30.325Z,22.80
2018-04-20T19:24:58.848Z,22.70
2018-04-20T19:27:26.316Z,22.60
2018-04-20T19:29:53.889Z,22.60
2018-04-20T19:32:21.404Z,22.50
2018-04-20T19:34:49.616Z,22.30
2018-04-20T19:37:17.232Z,22.20
2018-04-20T19:39:44.755Z,22.20
2018-04-20T19:42:12.233Z,22.00
2018-04-20T19:44:39.668Z,21.90
2018-04-20T19:47:07.125Z,21.80
2018-04-20T19:49:34.703Z,21.70
2018-04-20T19:52:02.201Z,21.60
2018-04-20T19:54:29.745Z,21.60
2018-04-20T19:56:57.224Z,21.60
2018-04-20T19:59:24.686Z,21.50
2018-04-20T20:01:52.147Z,21.50
2018-04-20T20:04:19.603Z,21.50
2018-04-20T20:06:47.075Z,21.50
2018-04-20T20:09:16.024Z,21.40
2018-04-20T20:11:43.501Z,21.40
2018-04-20T20:14:10.934Z,21.40
2018-04-20T20:16:38.541Z,21.30
2018-04-20T20:19:06.313Z,21.30
2018-04-20T20:21:33.789Z,21.30
2018-04-20T20:24:01.236Z,21.30
2018-04-20T20:26:28.686Z,21.30
2018-04-20T20:28:56.355Z,21.20
2018-04-20T20:31:23.810Z,21.20
2018-04-20T20:33:51.265Z,21.20
2018-04-20T20:36:18.722Z,21.10
2018-04-20T20:38:46.178Z,21.00
2018-04-20T20:41:13.619Z,20.90
2018-04-20T20:43:41.827Z,20.70
2018-04-20T20:46:09.295Z,20.70
2018-04-20T20:48:36.738Z,20.70
2018-04-20T20:51:04.189Z,20.60
2018-04-20T20:53:32.398Z,20.50
2018-04-20T20:55:59.860Z,20.40
2018-04-20T20:58:27.320Z,20.40
2018-04-20T21:00:54.778Z,20.40
2018-04-20T21:03:22.223Z,20.40
2018-04-20T21:05:49.679Z,20.30
2018-04-20T21:08:17.140Z,20.30
2018-04-20T21:10:44.719Z,20.30
2018-04-20T21:13:12.204Z,20.30
2018-04-20T21:15:39.640Z,20.20
2018-04-20T21:18:07.080Z,20.20
2018-04-20T21:20:34.541Z,20.20
2018-04-20T21:23:01.996Z,20.10
2018-04-20T21:25:29.473Z,20.10
2018-04-20T21:27:56.915Z,19.90
2018-04-20T21:30:24.375Z,19.90
2018-04-20T21:32:51.804Z,19.90
2018-04-20T21:35:19.490Z,19.80
2018-04-20T21:37:46.936Z,19.70
2018-04-20T21:40:14.385Z,19.60
2018-04-20T21:42:41.888Z,19.60
2018-04-20T21:45:09.326Z,19.60
2018-04-20T21:47:36.802Z,19.50
2018-04-20T21:50:04.244Z,19.40
2018-04-20T21:52:31.844Z,19.40
2018-04-20T21:54:59.302Z,19.30
2018-04-20T21:57:26.878Z,19.30
2018-04-20T21:59:54.325Z,19.20
2018-04-20T22:02:21.769Z,19.20
2018-04-20T22:04:49.399Z,19.20
2018-04-20T22:07:16.852Z,19.20
2018-04-20T22:09:44.302Z,19.20
2018-04-20T22:12:11.761Z,19.10
2018-04-20T22:14:39.478Z,19.10
2018-04-20T22:17:06.923Z,19.00
2018-04-20T22:19:34.433Z,19.00
2018-04-20T22:22:01.974Z,18.90
2018-04-20T22:24:29.418Z,18.90
2018-04-20T22:26:57.203Z,18.90
2018-04-20T22:29:24.676Z,18.90
2018-04-20T22:34:23.752Z,18.70
2018-04-20T22:36:51.314Z,18.60
2018-04-20T22:39:18.731Z,18.60
2018-04-20T22:41:46.199Z,18.50
2018-04-20T22:44:14.032Z,18.40
2018-04-20T22:46:41.526Z,18.40
2018-04-20T22:51:44.630Z,18.20
2018-04-20T22:54:12.085Z,18.20
2018-04-20T22:56:39.554Z,18.10
2018-04-20T22:59:07.495Z,18.10
2018-04-20T23:01:34.965Z,18.00
2018-04-20T23:04:02.420Z,18.00
2018-04-20T23:06:30.071Z,17.90
2018-04-20T23:08:57.852Z,17.90
2018-04-20T23:11:25.422Z,17.80
2018-04-20T23:13:52.983Z,17.80
2018-04-20T23:16:21.194Z,17.80
2018-04-20T23:18:48.728Z,17.70
2018-04-20T23:21:16.201Z,17.80
2018-04-20T23:23:43.772Z,17.80
2018-04-20T23:26:11.225Z,17.80
2018-04-20T23:28:38.782Z,17.80
2018-04-20T23:31:06.551Z,17.70
2018-04-20T23:33:34.008Z,17.60
2018-04-20T23:36:01.676Z,17.60
2018-04-20T23:38:29.439Z,17.50
2018-04-20T23:40:56.875Z,17.40
2018-04-20T23:43:24.329Z,17.40
2018-04-20T23:45:51.775Z,17.40
2018-04-20T23:48:19.993Z,17.40
2018-04-20T23:50:47.465Z,17.30
2018-04-20T23:53:14.908Z,17.40
2018-04-20T23:55:42.361Z,17.30
2018-04-20T23:58:09.804Z,17.30
